• Join FlightAware (Why Join?)
  • Login
  • US Flag 
06:55AM EDT


 

Airport Tracker/Info


-or-


 

Live Flight TrackerFlight Track Log ✈ SWA311 ✈ 28-Apr-2013 ✈ KFLL - KHOU

Flight Track Log - Related Links

Times and Time Zones

All times are in EDT time to prevent confusion due to time zone crossing. See the SWA311 flight status page for this flight to view local times or setup timezone preferences in your user account.

Time Position Orientation Groundspeed Altitude Reporting Facility
EDT Latitude Longitude Course Direction KTS MPH feet Rate Location/Type
11:39AM 26.0750 -80.1389 81° East 154 177 800  Level Miami Center
11:41AM 26.0894 -80.0422 81° East 229 264 3,400 1,800 Climbing Miami Center
11:41AM 26.1458 -80.0506 352° North 252 290 5,500 2,220 Climbing Miami Center
11:43AM 26.1750 -80.1464 289° West 301 346 8,000 2,040 Climbing Miami Center
11:43AM 26.1872 -80.1631 309° West 298 343 8,500 720 Climbing Miami Center
11:44AM 26.2081 -80.2514 285° West 315 362 9,000 600 Climbing Miami Center
11:45AM 26.2333 -80.3378 288° West 304 350 9,800 1,560 Climbing Miami Center
11:46AM 26.2658 -80.4617 286° West 342 394 12,200 2,580 Climbing Miami Center
11:47AM 26.2967 -80.5644 289° West 388 447 15,000 3,000 Climbing Miami Center
11:48AM 26.3689 -80.6756 306° West 402 463 18,200 2,760 Climbing Miami Center
11:49AM 26.4292 -80.7681 306° West 410 472 20,600 2,340 Climbing Miami Center
11:50AM 26.5053 -80.8889 305° West 415 478 22,900 2,100 Climbing Miami Center
11:51AM 26.5772 -80.9983 306° West 433 498 24,800 1,860 Climbing Miami Center
11:52AM 26.6511 -81.1147 305° West 446 513 26,700 2,340 Climbing Miami Center
11:53AM 26.7150 -81.2147 306° West 452 520 29,500 1,800 Climbing Miami Center
11:54AM 26.7867 -81.3289 305° West 452 520 30,300 1,440 Climbing Miami Center
11:55AM 26.8514 -81.4664 298° West 459 528 32,400 2,040 Climbing Miami Center
11:56AM 26.8911 -81.5961 289° West 453 521 34,400 1,800 Climbing Miami Center
11:57AM 26.9267 -81.7164 288° West 447 514 36,100 1,560 Climbing Miami Center
11:58AM 26.9622 -81.8367 288° West 439 505 37,600 900 Climbing Miami Center
11:59AM 26.9997 -81.9594 289° West 427 491 38,000 180 Climbing Miami Center
12:00PM 27.0408 -82.0939 289° West 422 486 38,000  Level Miami Center
12:01PM 27.0781 -82.2169 289° West 422 486 38,000  Level Miami Center
12:02PM 27.1111 -82.3350 287° West 428 493 38,000  Level Miami Center
12:03PM 27.1503 -82.4581 290° West 428 493 38,000  Level Miami Center
12:04PM 27.1908 -82.5978 288° West 428 493 38,000  Level Miami Center
12:05PM 27.2256 -82.7186 288° West 428 493 38,000  Level Miami Center
12:06PM 27.2622 -82.8442 288° West 422 486 38,000  Level Miami Center
12:07PM 27.3047 -82.9747 290° West 433 498 38,000  Level Miami Center
12:08PM 27.3408 -83.1028 288° West 433 498 38,000  Level Miami Center
12:09PM 27.3772 -83.2286 288° West 428 493 38,000  Level Miami Center
12:10PM 27.4114 -83.3519 287° West 428 493 38,000  Level Miami Center
12:11PM 27.4494 -83.4758 289° West 428 493 38,000  Level Miami Center
12:12PM 27.4853 -83.6017 288° West 428 493 38,000  Level Miami Center
12:13PM 27.5192 -83.7253 287° West 428 493 38,000  Level Miami Center
12:14PM 27.5572 -83.8469 289° West 428 493 38,000  Level Miami Center
12:15PM 27.5906 -83.9731 287° West 428 493 38,000  Level Miami Center
12:16PM 27.6283 -84.0925 290° West 423 487 38,000  Level Miami Center
12:18PM 27.7136 -84.3856 288° West 406 467 38,000  Level Jacksonville Center
12:19PM 27.7433 -84.5081 285° West 406 467 38,000  Level Jacksonville Center
12:20PM 27.7647 -84.6303 281° West 406 467 38,000  Level Jacksonville Center
12:21PM 27.8089 -84.7531 292° West 406 467 38,000  Level Jacksonville Center
12:22PM 27.8406 -84.8639 288° West 419 482 38,000  Level Jacksonville Center
12:23PM 27.8761 -84.9889 288° West 419 482 38,000  Level Jacksonville Center
12:24PM 27.9117 -85.1142 288° West 419 482 38,000  Level Jacksonville Center
12:25PM 27.9450 -85.2394 287° West 419 482 38,000  Level Jacksonville Center
12:26PM 27.9803 -85.3600 288° West 419 482 38,000  Level Jacksonville Center
12:27PM 28.0153 -85.4903 287° West 420 483 38,000  Level Jacksonville Center
12:28PM 28.0483 -85.6108 287° West 415 478 38,000  Level Jacksonville Center
12:29PM 28.0808 -85.7389 286° West 415 478 38,000  Level Jacksonville Center
12:30PM 28.1158 -85.8597 288° West 420 483 38,000  Level Jacksonville Center
12:31PM 28.1483 -85.9856 286° West 420 483 38,000  Level Jacksonville Center
12:32PM 28.1764 -86.1136 284° West 420 483 38,000  Level Jacksonville Center
12:33PM 28.2006 -86.2344 283° West 413 475 38,000 -240 Level Jacksonville Center
12:34PM 28.2264 -86.3600 283° West 406 467 37,600 -720 Descending Jacksonville Center
12:35PM 28.2497 -86.4903 282° West 413 475 36,600 -840 Descending Jacksonville Center
12:36PM 28.2753 -86.6233 282° West 413 475 36,000 -300 Descending Jacksonville Center
12:37PM 28.3008 -86.7514 283° West 421 484 36,000  Level Jacksonville Center
12:38PM 28.3258 -86.8822 282° West 421 484 36,000  Level Jacksonville Center
12:39PM 28.3469 -87.0103 281° West 426 490 36,000  Level Jacksonville Center
12:40PM 28.3717 -87.1481 282° West 432 497 36,000  Level Jacksonville Center
12:41PM 28.3983 -87.2814 283° West 427 491 36,000  Level Jacksonville Center
12:43PM 28.4356 -87.4933 281° West 430 495 36,000  Level Houston Center
12:44PM 28.4606 -87.6233 282° West 425 489 36,000  Level Houston Center
12:45PM 28.4842 -87.7522 282° West 419 482 36,000  Level Houston Center
12:46PM 28.5103 -87.9050 281° West 413 475 36,000  Level Houston Center
12:47PM 28.5339 -88.0325 282° West 412 474 36,000  Level Houston Center
12:48PM 28.5547 -88.1528 281° West 412 474 36,000  Level Houston Center
12:49PM 28.5761 -88.2786 281° West 408 470 36,000  Level Houston Center
12:50PM 28.5983 -88.4042 281° West 406 467 36,000  Level Houston Center
12:51PM 28.6250 -88.5522 282° West 401 461 36,000  Level Houston Center
12:52PM 28.6458 -88.6750 281° West 398 458 36,000  Level Houston Center
12:53PM 28.6678 -88.7992 281° West 398 458 36,000  Level Houston Center
12:54PM 28.6883 -88.9228 281° West 399 459 36,000  Level Houston Center
12:55PM 28.7097 -89.0478 281° West 400 460 36,000  Level Houston Center
12:56PM 28.7306 -89.1750 281° West 406 467 36,000  Level Houston Center
12:57PM 28.7561 -89.3239 281° West 402 463 36,000  Level Houston Center
12:58PM 28.7767 -89.4500 281° West 403 464 36,000  Level Houston Center
01:00PM 28.7967 -89.5711 281° West 396 456 36,000  Level Houston Center
01:01PM 28.8167 -89.6969 280° West 400 460 36,000  Level Houston Center
01:02PM 28.8361 -89.8175 280° West 392 451 36,000  Level Houston Center
01:03PM 28.8564 -89.9381 281° West 389 448 36,000  Level Houston Center
01:04PM 28.8758 -90.0603 280° West 390 449 36,000  Level Houston Center
01:05PM 28.8992 -90.2042 281° West 386 444 36,000  Level Houston Center
01:06PM 28.9183 -90.3250 280° West 386 444 36,000  Level Houston Center
01:07PM 28.9386 -90.4439 281° West 384 442 36,000  Level Houston Center
01:08PM 28.9561 -90.5633 280° West 382 440 36,000  Level Houston Center
01:09PM 28.9747 -90.6803 280° West 377 434 36,000  Level Houston Center
01:10PM 28.9925 -90.7967 280° West 373 429 36,000  Level Houston Center
01:11PM 29.0053 -90.9336 276° West 363 418 36,000  Level Houston Center
01:12PM 29.0172 -91.0506 277° West 369 425 36,000  Level Houston Center
01:13PM 29.0294 -91.1686 277° West 372 428 36,000  Level Houston Center
01:14PM 29.0411 -91.2836 277° West 369 425 36,000  Level Houston Center
01:15PM 29.0533 -91.4019 277° West 372 428 36,000  Level Houston Center
01:16PM 29.0644 -91.5169 276° West 368 423 36,000  Level Houston Center
01:17PM 29.0753 -91.6339 276° West 369 425 36,000  Level Houston Center
01:18PM 29.0906 -91.7767 277° West 373 429 36,000  Level Houston Center
01:19PM 29.1008 -91.8936 276° West 372 428 36,000  Level Houston Center
01:20PM 29.1106 -92.0078 276° West 365 420 36,000  Level Houston Center
01:21PM 29.1228 -92.1211 277° West 362 417 36,000  Level Houston Center
01:22PM 29.1333 -92.2333 276° West 360 414 36,000  Level Houston Center
01:23PM 29.1447 -92.3456 277° West 357 411 36,000  Level Houston Center
01:24PM 29.1567 -92.4817 276° West 359 413 36,000  Level Houston Center
01:25PM 29.1669 -92.5942 276° West 358 412 36,000  Level Houston Center
01:26PM 29.1781 -92.7086 276° West 362 417 36,000  Level Houston Center
01:27PM 29.1886 -92.8228 276° West 362 417 36,000  Level Houston Center
01:28PM 29.1983 -92.9378 276° West 364 419 36,000  Level Houston Center
01:29PM 29.2089 -93.0539 276° West 365 420 36,000 -300 Level Houston Center
01:31PM 29.2186 -93.1694 276° West 365 420 35,500 -840 Descending Houston Center
01:32PM 29.2308 -93.3078 276° West 364 419 34,300 -1,020 Descending Houston Center
01:33PM 29.2400 -93.4258 275° West 372 428 33,400 -1,680 Descending Houston Center
01:34PM 29.2508 -93.5464 276° West 379 436 30,900 -2,880 Descending Houston Center
01:35PM 29.2614 -93.6686 276° West 383 441 27,500 -3,540 Descending Houston Center
01:36PM 29.2633 -93.7975 271° West 399 459 23,600 -3,300 Descending Houston Center
01:37PM 29.2628 -93.9347 270° West 404 465 20,800 -2,940 Descending Houston Center
01:37PM 29.2639 -94.0206 271° West 391 450 18,800 -2,820 Descending Houston Center
01:38PM 29.2639 -94.0567 270° West 390 449 17,900 -2,880 Descending Houston Center
01:38PM 29.2647 -94.1092 271° West 382 440 16,700 -2,640 Descending Houston Center
01:39PM 29.2661 -94.1775 271° West 383 441 15,200 -2,460 Descending Houston Center
01:39PM 29.2667 -94.2336 271° West 378 435 14,200 -2,940 Descending Houston Center
01:40PM 29.2667 -94.3178 270° West 371 427 12,200 -2,100 Descending Houston Center
01:40PM 29.2656 -94.3489 268° West 368 423 12,100 -240 Descending Houston Center
01:41PM 29.2672 -94.4283 271° West 356 410 12,000 -120 Descending Houston Center
01:41PM 29.2667 -94.4661 269° West 339 390 12,000 -120 Level Houston Center
01:42PM 29.2925 -94.5367 293° West 361 415 11,900 -240 Descending Houston Center
01:42PM 29.3083 -94.5686 300° West 363 418 11,800 -720 Descending Houston Center
01:43PM 29.3408 -94.6347 299° West 358 412 11,200 -720 Descending Houston Center
01:44PM 29.3897 -94.7342 299° West 358 412 10,500 -660 Descending Houston Center
01:45PM 29.4544 -94.8622 300° West 300 345 9,800 -780 Descending Houston Center
01:46PM 29.4842 -94.9253 298° West 295 339 9,000 -1,020 Descending Houston Center
01:47PM 29.5233 -95.0044 300° West 286 329 8,000 -1,020 Descending Houston Center
01:48PM 29.5672 -95.0981 298° West 272 313 6,800 -960 Descending Houston Center
01:49PM 29.5936 -95.1572 297° West 267 307 6,100 -480 Descending Houston Center
01:50PM 29.5625 -95.2344 245° Southwest 253 291 6,000 -540 Descending Houston Center
01:51PM 29.5186 -95.2861 226° Southwest 234 269 5,000 -900 Descending Houston Center
01:52PM 29.4772 -95.3356 226° Southwest 222 255 4,200 -840 Descending Houston Center
01:53PM 29.5083 -95.3869 305° West 205 236 3,300 -1,080 Descending Houston Center
01:54PM 29.5706 -95.3594 21° North 184 212 1,900 -1,140 Descending Houston Center
01:55PM 29.6033 -95.3247 43° Northeast 182 209 1,000 -840 Descending Houston Center
01:56PM 29.6336 -95.2908 44° Northeast 166 191 300 -480 Descending Houston Center
01:57PM 29.6633 -95.2569 45° Northeast 163 188 100 -240 Descending Houston Center